Time;durP1;ratioP1;P1;durP2;ratioP2;P2;SDS_P1;SDS_P2;PMS_P1;PMS_P2;Temp;Humidity;BMP_temperature;BMP_pressure;BME280_temperature;BME280_humidity;BME280_pressure;Samples;Min_cycle;Max_cycle;Signal;HPM_P1;HPM_P2
2022/09/16 00:01:21;;;;;;;0.10;0.10;;;;;;;12.18;96.25;100971.59;5081702;28;20457;-74
2022/09/16 00:03:46;;;;;;;0.10;0.10;;;;;;;12.35;96.17;101006.03;5078354;28;20027;-76
2022/09/16 00:06:27;;;;;;;0.00;0.00;;;;;;;12.32;96.25;101021.56;5076526;28;20032;-74
2022/09/16 00:08:57;;;;;;;0.00;0.00;;;;;;;12.24;96.77;101004.22;5063744;28;20062;-76
2022/09/16 00:11:23;;;;;;;0.10;0.10;;;;;;;12.21;98.56;101015.25;5074600;28;20067;-73
2022/09/16 00:13:49;;;;;;;0.10;0.10;;;;;;;12.28;98.11;101019.16;5074445;28;20060;-73
2022/09/16 00:16:21;;;;;;;0.10;0.10;;;;;;;12.17;98.31;101007.56;5076342;28;20029;-74
2022/09/16 00:18:47;;;;;;;0.05;0.05;;;;;;;12.21;98.58;101017.94;5077865;28;20047;-73
2022/09/16 00:21:12;;;;;;;0.00;0.00;;;;;;;12.24;98.80;101015.00;5073041;28;20035;-73
2022/09/16 00:23:38;;;;;;;0.08;0.08;;;;;;;12.16;98.68;100998.59;5073877;28;20422;-73
2022/09/16 00:26:04;;;;;;;0.05;0.05;;;;;;;12.17;98.72;100986.88;5068073;28;20035;-73
2022/09/16 00:28:29;;;;;;;0.10;0.10;;;;;;;12.27;98.86;100992.34;5075207;28;20080;-73
2022/09/16 00:30:58;;;;;;;0.00;0.00;;;;;;;12.05;98.67;100964.50;5073535;28;20031;-74
2022/09/16 00:33:24;;;;;;;0.10;0.10;;;;;;;12.22;99.55;101002.63;5073380;28;20070;-74
2022/09/16 00:35:49;;;;;;;0.00;0.00;;;;;;;12.25;99.48;100999.69;5070852;28;20333;-74
2022/09/16 00:38:15;;;;;;;0.00;0.00;;;;;;;12.25;99.89;101005.94;5070290;28;20466;-73
2022/09/16 00:40:44;;;;;;;0.10;0.10;;;;;;;12.26;99.59;101006.78;5073881;28;20024;-73
2022/09/16 00:43:19;;;;;;;0.10;0.10;;;;;;;12.28;99.61;101003.00;5075218;28;20029;-74
2022/09/16 00:45:49;;;;;;;0.10;0.10;;;;;;;12.29;100.00;101001.16;5072897;28;20032;-74
2022/09/16 00:48:18;;;;;;;0.00;0.00;;;;;;;12.21;100.00;100998.22;5075131;28;20437;-73
2022/09/16 00:50:47;;;;;;;0.00;0.00;;;;;;;12.14;100.00;100998.75;5072203;28;20047;-76
2022/09/16 00:53:21;;;;;;;0.17;0.03;;;;;;;12.04;100.00;100988.88;5081193;28;20028;-76
2022/09/16 00:55:48;;;;;;;0.00;0.00;;;;;;;12.09;100.00;100995.56;5080656;28;20461;-73
2022/09/16 00:58:29;;;;;;;0.00;0.00;;;;;;;12.04;100.00;101000.47;5080103;28;20039;-74
2022/09/16 01:00:54;;;;;;;0.00;0.00;;;;;;;12.00;100.00;100983.72;5066142;28;20052;-74
2022/09/16 01:03:20;;;;;;;0.10;0.10;;;;;;;12.09;100.00;100997.41;5076621;28;20096;-75
2022/09/16 01:05:45;;;;;;;0.00;0.00;;;;;;;12.18;100.00;100999.34;5079729;28;20062;-76
2022/09/16 01:08:11;;;;;;;0.10;0.10;;;;;;;12.20;100.00;100997.38;5075716;28;20031;-74
2022/09/16 01:10:39;;;;;;;0.08;0.08;;;;;;;12.30;100.00;101002.84;5077079;28;20665;-72
2022/09/16 01:13:07;;;;;;;0.00;0.00;;;;;;;12.34;99.87;100993.53;5069855;28;20034;-73
2022/09/16 01:15:41;;;;;;;0.10;0.10;;;;;;;12.28;99.98;100997.63;5073128;28;20067;-74
2022/09/16 01:18:13;;;;;;;;;;;;;;;12.27;100.00;100997.72;5073390;28;20031;-74
2022/09/16 01:20:59;;;;;;;0.00;0.00;;;;;;;12.26;100.00;100999.56;5068741;28;19916;-76
2022/09/16 01:23:59;;;;;;;0.10;0.10;;;;;;;12.27;99.88;100997.72;5073573;28;20123;-75
2022/09/16 01:26:46;;;;;;;0.00;0.00;;;;;;;12.27;99.65;100998.59;5073291;28;20082;-76
2022/09/16 01:29:25;;;;;;;0.10;0.10;;;;;;;12.27;99.41;100995.91;5069895;28;20035;-75
2022/09/16 01:32:04;;;;;;;0.00;0.00;;;;;;;12.10;100.00;100994.59;5077698;28;20031;-77
2022/09/16 01:34:57;;;;;;;0.10;0.10;;;;;;;12.16;100.00;101004.00;5077613;28;20039;-76
2022/09/16 01:37:29;;;;;;;0.00;0.00;;;;;;;12.18;100.00;101006.56;5073390;28;20630;-77
2022/09/16 01:40:22;;;;;;;0.00;0.00;;;;;;;12.13;100.00;101001.56;5076813;28;20035;-75
2022/09/16 01:43:01;;;;;;;0.10;0.10;;;;;;;12.06;100.00;101003.03;5074308;28;20821;-76
2022/09/16 01:45:37;;;;;;;0.00;0.00;;;;;;;12.04;100.00;101000.47;5072741;28;20493;-75
2022/09/16 01:48:26;;;;;;;0.08;0.08;;;;;;;12.00;100.00;100999.88;5077180;28;20090;-75
2022/09/16 01:50:59;;;;;;;0.03;0.03;;;;;;;11.97;100.00;101000.09;5073921;28;20525;-75
2022/09/16 01:53:48;;;;;;;0.10;0.10;;;;;;;11.98;100.00;100996.41;5068902;28;20146;-75
2022/09/16 01:56:43;;;;;;;0.00;0.00;;;;;;;12.06;99.76;100998.50;5069565;28;20027;-76
2022/09/16 01:59:16;;;;;;;0.03;0.03;;;;;;;12.00;99.94;100991.81;5072796;28;20462;-76
2022/09/16 02:01:49;;;;;;;0.00;0.00;;;;;;;12.06;99.92;100987.75;5071224;28;20035;-76
2022/09/16 02:04:20;;;;;;;0.10;0.10;;;;;;;12.04;100.00;101010.41;5068292;28;20733;-76
2022/09/16 02:06:47;;;;;;;0.00;0.00;;;;;;;11.91;100.00;100995.19;5073644;28;20023;-78
2022/09/16 02:09:15;;;;;;;0.10;0.10;;;;;;;11.96;100.00;101002.88;5076367;28;20028;-76
2022/09/16 02:11:42;;;;;;;0.00;0.00;;;;;;;11.93;100.00;101000.44;5071834;28;20048;-76
2022/09/16 02:14:17;;;;;;;0.10;0.10;;;;;;;11.79;100.00;100970.16;5071555;28;20063;-77
2022/09/16 02:17:14;;;;;;;0.00;0.00;;;;;;;11.91;100.00;100997.91;5075832;28;20024;-76
2022/09/16 02:19:45;;;;;;;0.10;0.10;;;;;;;11.95;100.00;100990.41;5077319;28;20043;-76
2022/09/16 02:22:13;;;;;;;0.05;0.05;;;;;;;11.87;100.00;100991.03;5074123;28;20116;-76
2022/09/16 02:24:40;;;;;;;0.00;0.00;;;;;;;11.85;100.00;100996.56;5068009;28;20027;-76
2022/09/16 02:27:09;;;;;;;0.10;0.10;;;;;;;11.66;100.00;100956.84;5075153;28;20038;-76
2022/09/16 02:29:45;;;;;;;0.00;0.00;;;;;;;11.73;100.00;100967.94;5070514;28;20151;-76
2022/09/16 02:32:11;;;;;;;0.10;0.10;;;;;;;11.75;100.00;100982.13;5069513;28;20032;-76
2022/09/16 02:34:40;;;;;;;0.10;0.10;;;;;;;11.76;100.00;100994.59;5070406;28;20469;-77
2022/09/16 02:37:10;;;;;;;0.00;0.00;;;;;;;11.72;100.00;100998.50;5067285;28;20288;-76
2022/09/16 02:39:38;;;;;;;0.00;0.00;;;;;;;11.62;100.00;100986.81;5077144;28;20039;-76
2022/09/16 02:42:04;;;;;;;0.00;0.00;;;;;;;11.45;100.00;100967.47;5069577;28;20051;-76
2022/09/16 02:44:30;;;;;;;0.10;0.10;;;;;;;11.62;100.00;100993.03;5075434;28;20103;-76
2022/09/16 02:47:08;;;;;;;0.10;0.10;;;;;;;11.55;100.00;100992.66;5074856;28;20031;-76
2022/09/16 02:49:56;;;;;;;0.08;0.08;;;;;;;11.50;100.00;100991.31;5074860;28;20021;-76
2022/09/16 02:52:45;;;;;;;0.00;0.00;;;;;;;11.43;100.00;100995.47;5074604;28;20039;-76
2022/09/16 02:55:34;;;;;;;0.00;0.00;;;;;;;11.36;100.00;100990.56;5071216;28;20087;-76
2022/09/16 02:57:59;;;;;;;0.10;0.10;;;;;;;11.15;100.00;100987.72;5080133;28;20029;-76
2022/09/16 03:00:25;;;;;;;0.00;0.00;;;;;;;11.12;100.00;100997.88;5077268;28;20406;-76
2022/09/16 03:02:52;;;;;;;0.00;0.00;;;;;;;11.04;100.00;100995.78;5075386;28;20092;-76
2022/09/16 03:05:18;;;;;;;0.10;0.10;;;;;;;11.09;100.00;100998.97;5061157;28;20032;-75
2022/09/16 03:07:43;;;;;;;0.10;0.10;;;;;;;11.05;100.00;100990.28;5073210;28;20038;-76
2022/09/16 03:10:11;;;;;;;0.08;0.08;;;;;;;10.99;100.00;100992.59;5074356;28;20114;-76
2022/09/16 03:12:55;;;;;;;0.00;0.00;;;;;;;10.90;100.00;100986.94;5074945;28;20039;-76
2022/09/16 03:15:38;;;;;;;0.10;0.10;;;;;;;10.73;100.00;100987.38;5073494;28;20024;-77
2022/09/16 03:18:30;;;;;;;0.00;0.00;;;;;;;10.73;100.00;100979.34;5069876;28;20040;-76
2022/09/16 03:21:22;;;;;;;0.10;0.10;;;;;;;10.91;100.00;100982.44;5069585;28;20777;-76
2022/09/16 03:23:56;;;;;;;0.03;0.03;;;;;;;11.02;100.00;100990.50;5073668;28;20040;-76
2022/09/16 03:26:33;;;;;;;0.10;0.10;;;;;;;11.05;100.00;100992.13;5075595;28;20043;-76
2022/09/16 03:29:11;;;;;;;0.10;0.10;;;;;;;11.11;100.00;100991.66;5075702;28;20119;-76
2022/09/16 03:31:54;;;;;;;0.00;0.00;;;;;;;11.09;100.00;100988.22;5070235;28;20416;-76
2022/09/16 03:34:23;;;;;;;0.10;0.10;;;;;;;11.13;100.00;100996.91;5071530;28;21204;-77
2022/09/16 03:37:09;;;;;;;0.10;0.10;;;;;;;11.13;100.00;100995.06;5078080;28;20159;-76
2022/09/16 03:39:35;;;;;;;0.10;0.10;;;;;;;10.91;100.00;100955.59;5073535;28;20039;-77
2022/09/16 03:42:02;;;;;;;0.03;0.03;;;;;;;11.15;100.00;100990.41;5081264;28;20028;-76
2022/09/16 03:44:32;;;;;;;0.03;0.03;;;;;;;11.19;100.00;100989.22;5077432;28;20321;-77
2022/09/16 03:46:57;;;;;;;0.10;0.10;;;;;;;11.27;100.00;100982.38;5063772;28;20028;-76
2022/09/16 03:49:23;;;;;;;0.10;0.10;;;;;;;11.21;100.00;100989.09;5069711;28;20074;-78
2022/09/16 03:51:48;;;;;;;0.10;0.10;;;;;;;11.15;100.00;100982.34;5069693;28;20024;-77
2022/09/16 03:54:13;;;;;;;0.00;0.00;;;;;;;11.13;100.00;100983.47;5069108;28;20375;-77
2022/09/16 03:56:38;;;;;;;0.10;0.10;;;;;;;11.13;100.00;100987.00;5068822;28;20040;-75
2022/09/16 03:59:04;;;;;;;0.10;0.10;;;;;;;11.09;100.00;100977.47;5073625;28;20059;-75
2022/09/16 04:01:29;;;;;;;0.10;0.10;;;;;;;11.20;100.00;100977.47;5078888;28;20025;-76
2022/09/16 04:03:55;;;;;;;0.10;0.10;;;;;;;11.18;100.00;100979.44;5069905;28;20405;-77
2022/09/16 04:06:20;;;;;;;0.00;0.00;;;;;;;11.16;100.00;100975.16;5073184;28;21273;-77
2022/09/16 04:08:46;;;;;;;0.00;0.00;;;;;;;11.14;100.00;100974.44;5077579;28;20036;-77
2022/09/16 04:11:11;;;;;;;0.10;0.10;;;;;;;11.23;100.00;100973.72;5075173;28;20487;-78
2022/09/16 04:13:36;;;;;;;0.05;0.05;;;;;;;11.12;100.00;100952.19;5073044;28;20038;-78
2022/09/16 04:16:02;;;;;;;0.10;0.10;;;;;;;11.26;100.00;100976.13;5077448;28;20032;-76
2022/09/16 04:18:32;;;;;;;0.10;0.10;;;;;;;11.24;100.00;100973.56;5069882;28;20032;-77
2022/09/16 04:20:59;;;;;;;0.10;0.10;;;;;;;11.08;100.00;100971.25;5068843;28;20047;-77
2022/09/16 04:23:25;;;;;;;0.05;0.05;;;;;;;11.02;100.00;100971.69;5070788;28;20020;-77
2022/09/16 04:25:57;;;;;;;0.10;0.10;;;;;;;11.12;100.00;100988.00;5072929;28;20687;-77
2022/09/16 04:28:23;;;;;;;0.10;0.10;;;;;;;11.10;100.00;100984.56;5066989;28;20127;-76
2022/09/16 04:30:49;;;;;;;0.00;0.00;;;;;;;11.07;100.00;100979.44;5077639;28;20028;-75
2022/09/16 04:33:14;;;;;;;0.10;0.10;;;;;;;11.14;100.00;100988.69;5070338;28;20371;-76
2022/09/16 04:35:39;;;;;;;0.00;0.00;;;;;;;11.04;100.00;100976.97;5069052;28;20070;-77
2022/09/16 04:38:05;;;;;;;0.00;0.00;;;;;;;11.03;100.00;100980.63;5076202;28;20039;-77
2022/09/16 04:40:30;;;;;;;0.00;0.00;;;;;;;11.05;100.00;100992.13;5075353;28;20051;-78
2022/09/16 04:42:55;;;;;;;0.08;0.08;;;;;;;11.03;100.00;101005.66;5077820;28;20154;-77
2022/09/16 04:45:20;;;;;;;0.00;0.00;;;;;;;11.00;100.00;100989.78;5076030;28;20061;-76
2022/09/16 04:47:46;;;;;;;0.03;0.03;;;;;;;11.05;100.00;101002.88;5072779;28;20402;-76
2022/09/16 04:50:11;;;;;;;0.10;0.10;;;;;;;11.13;100.00;101004.97;5072483;28;20055;-76
2022/09/16 04:52:36;;;;;;;0.10;0.10;;;;;;;11.09;100.00;100994.44;5069667;28;20047;-76
2022/09/16 04:55:02;;;;;;;0.10;0.10;;;;;;;11.14;100.00;100982.47;5075315;28;20036;-76
2022/09/16 04:57:31;;;;;;;0.03;0.03;;;;;;;10.97;100.00;100952.44;5074322;28;20125;-76
2022/09/16 04:59:57;;;;;;;0.10;0.10;;;;;;;11.04;100.00;100947.41;5069924;28;20037;-77
2022/09/16 05:02:22;;;;;;;0.00;0.00;;;;;;;11.20;100.00;100965.88;5070074;28;20028;-77
2022/09/16 05:04:47;;;;;;;0.00;0.00;;;;;;;11.25;100.00;100969.91;5068713;28;20029;-77
2022/09/16 05:07:13;;;;;;;0.03;0.03;;;;;;;11.25;100.00;100953.78;5076688;28;20035;-77
2022/09/16 05:09:38;;;;;;;0.00;0.00;;;;;;;11.31;100.00;100970.41;5075031;28;20031;-77
2022/09/16 05:12:04;;;;;;;0.10;0.10;;;;;;;11.22;100.00;100951.34;5069871;28;20067;-76
2022/09/16 05:14:29;;;;;;;0.00;0.00;;;;;;;11.29;100.00;100967.00;5072037;28;20060;-76
2022/09/16 05:16:54;;;;;;;0.10;0.10;;;;;;;11.19;100.00;100969.56;5073820;28;20301;-77
2022/09/16 05:19:19;;;;;;;0.08;0.08;;;;;;;11.25;100.00;100969.91;5070543;28;23006;-76
2022/09/16 05:21:45;;;;;;;0.00;0.00;;;;;;;11.25;100.00;100963.69;5071220;28;20024;-75
2022/09/16 05:24:12;;;;;;;0.10;0.10;;;;;;;11.25;100.00;100964.53;5071320;28;20033;-76
2022/09/16 05:26:40;;;;;;;0.00;0.00;;;;;;;11.27;100.00;100961.72;5076317;28;20431;-76
2022/09/16 05:29:09;;;;;;;0.10;0.10;;;;;;;11.22;100.00;100964.78;5070694;28;20110;-76
2022/09/16 05:31:37;;;;;;;0.10;0.10;;;;;;;11.24;100.00;100959.31;5068563;28;20031;-76
2022/09/16 05:34:13;;;;;;;0.10;0.10;;;;;;;11.28;100.00;100978.72;5074286;28;20476;-76
2022/09/16 05:36:40;;;;;;;0.00;0.00;;;;;;;11.25;100.00;100964.53;5071789;28;20444;-76
2022/09/16 05:39:06;;;;;;;0.10;0.10;;;;;;;11.35;100.00;100977.28;5071202;28;20348;-77
2022/09/16 05:41:31;;;;;;;0.00;0.00;;;;;;;11.34;100.00;100989.84;5078501;28;20508;-76
2022/09/16 05:43:58;;;;;;;0.00;0.00;;;;;;;11.37;100.00;100978.84;5075667;28;20027;-75
2022/09/16 05:46:23;;;;;;;0.00;0.00;;;;;;;11.32;100.00;100981.03;5068396;28;21196;-77
2022/09/16 05:48:49;;;;;;;0.10;0.10;;;;;;;11.24;100.00;100973.56;5073395;28;20592;-76
2022/09/16 05:51:20;;;;;;;0.10;0.10;;;;;;;11.24;100.00;100980.81;5070506;28;20027;-76
2022/09/16 05:53:46;;;;;;;0.08;0.08;;;;;;;11.28;100.00;100992.16;5068074;28;20032;-76
2022/09/16 05:56:20;;;;;;;0.00;0.00;;;;;;;11.15;100.00;100997.63;5070275;28;20081;-75
2022/09/16 05:58:46;;;;;;;0.10;0.10;;;;;;;11.08;100.00;101006.16;5072490;28;20432;-76
2022/09/16 06:01:16;;;;;;;0.00;0.00;;;;;;;10.86;100.00;100976.56;5071679;28;20028;-77
2022/09/16 06:03:44;;;;;;;0.10;0.10;;;;;;;11.05;100.00;100998.34;5075882;28;20036;-76
2022/09/16 06:06:25;;;;;;;0.10;0.10;;;;;;;11.10;100.00;101000.69;5068936;28;20029;-78
2022/09/16 06:08:52;;;;;;;0.00;0.00;;;;;;;11.04;100.00;100988.56;5072076;28;20040;-76
2022/09/16 06:11:17;;;;;;;0.10;0.10;;;;;;;11.20;100.00;100998.97;5058769;28;20016;-76
2022/09/16 06:13:43;;;;;;;0.10;0.10;;;;;;;11.24;100.00;100995.09;5077472;28;20587;-80
2022/09/16 06:16:09;;;;;;;0.03;0.03;;;;;;;11.24;100.00;100973.56;5070269;28;20024;-76
2022/09/16 06:18:35;;;;;;;0.00;0.00;;;;;;;11.42;100.00;100999.97;5070613;28;20044;-77
2022/09/16 06:21:06;;;;;;;0.00;0.00;;;;;;;11.54;100.00;100990.09;5076557;28;20509;-77
2022/09/16 06:23:32;;;;;;;0.00;0.00;;;;;;;11.69;100.00;101006.81;5068077;28;20028;-75
2022/09/16 06:26:08;;;;;;;0.10;0.10;;;;;;;11.74;100.00;101003.78;5071519;28;20075;-74
2022/09/16 06:28:34;;;;;;;0.08;0.08;;;;;;;11.81;100.00;100999.59;5074198;28;20032;-79
2022/09/16 06:31:02;;;;;;;0.00;0.00;;;;;;;11.85;100.00;101009.13;5067187;28;20073;-77
2022/09/16 06:33:27;;;;;;;0.00;0.00;;;;;;;11.78;100.00;101003.41;5072769;28;20081;-78
2022/09/16 06:35:53;;;;;;;0.10;0.10;;;;;;;11.89;100.00;101024.06;5069508;28;20040;-75
2022/09/16 06:38:18;;;;;;;0.00;0.00;;;;;;;11.77;100.00;101003.53;5070749;28;20097;-79
2022/09/16 06:40:43;;;;;;;0.00;0.00;;;;;;;11.80;100.00;101022.09;5064882;28;20382;-75
2022/09/16 06:43:09;;;;;;;0.10;0.10;;;;;;;11.78;100.00;101024.09;5065120;28;20374;-78
2022/09/16 06:45:34;;;;;;;0.10;0.10;;;;;;;11.64;100.00;101015.28;5069204;28;20039;-78
2022/09/16 06:48:00;;;;;;;0.08;0.08;;;;;;;11.64;100.00;101030.56;5065247;28;21546;-76
2022/09/16 06:50:25;;;;;;;0.10;0.10;;;;;;;11.70;100.00;101032.75;5067082;28;20127;-76
2022/09/16 06:52:50;;;;;;;0.10;0.10;;;;;;;11.73;100.00;101028.97;5068844;28;20038;-76
2022/09/16 06:55:16;;;;;;;0.03;0.03;;;;;;;11.63;100.00;101035.06;5069547;28;20501;-77
2022/09/16 06:57:41;;;;;;;0.00;0.00;;;;;;;11.43;100.00;101020.50;5069933;28;20040;-77
2022/09/16 07:00:11;;;;;;;0.00;0.00;;;;;;;11.54;100.00;101031.28;5076775;28;20393;-76
2022/09/16 07:02:37;;;;;;;0.00;0.00;;;;;;;11.57;100.00;101032.03;5072024;28;20024;-77
2022/09/16 07:05:08;;;;;;;0.10;0.10;;;;;;;11.57;100.00;101040.09;5075427;28;20035;-80
2022/09/16 07:07:35;;;;;;;0.10;0.10;;;;;;;11.53;100.00;101026.88;5074432;28;20054;-76
2022/09/16 07:10:00;;;;;;;0.00;0.00;;;;;;;11.51;100.00;101036.06;5076902;28;20027;-75
2022/09/16 07:12:27;;;;;;;0.10;0.10;;;;;;;11.43;100.00;101012.44;5073865;28;20097;-75
2022/09/16 07:14:52;;;;;;;0.00;0.00;;;;;;;11.58;100.00;101020.28;5073697;28;20035;-77
2022/09/16 07:17:18;;;;;;;0.00;0.00;;;;;;;11.55;100.00;101006.09;5074881;28;20073;-77
2022/09/16 07:19:43;;;;;;;0.10;0.10;;;;;;;11.77;100.00;101015.16;5070246;28;20047;-74
2022/09/16 07:22:10;;;;;;;0.00;0.00;;;;;;;11.79;100.00;101007.81;5077295;28;20036;-75
2022/09/16 07:24:35;;;;;;;0.00;0.00;;;;;;;12.02;100.00;101026.66;5080729;28;20032;-73
2022/09/16 07:27:00;;;;;;;0.00;0.00;;;;;;;12.10;100.00;101026.03;5070517;28;20024;-74
2022/09/16 07:29:26;;;;;;;0.10;0.10;;;;;;;12.26;100.00;101025.63;5072173;28;20183;-73
2022/09/16 07:31:51;;;;;;;0.00;0.00;;;;;;;12.25;100.00;100994.31;5071041;28;20456;-74
2022/09/16 07:34:17;;;;;;;0.00;0.00;;;;;;;12.35;100.00;101000.66;5078897;28;20151;-76
2022/09/16 07:36:46;;;;;;;0.10;0.10;;;;;;;12.59;100.00;101019.28;5080579;28;20031;-75
2022/09/16 07:39:13;;;;;;;0.00;0.00;;;;;;;12.85;100.00;101028.84;5085634;28;20069;-72
2022/09/16 07:41:40;;;;;;;0.05;0.05;;;;;;;12.99;100.00;101033.91;5077415;28;20556;-76
2022/09/16 07:44:07;;;;;;;0.00;0.00;;;;;;;13.07;99.52;101016.25;5057156;28;20048;-74
2022/09/16 07:46:34;;;;;;;0.10;0.10;;;;;;;13.27;99.13;101033.41;5076037;28;20041;-73
2022/09/16 07:49:01;;;;;;;0.10;0.10;;;;;;;13.40;98.14;101025.94;5074859;28;20425;-74
2022/09/16 07:51:27;;;;;;;0.10;0.10;;;;;;;13.44;96.63;101034.66;5068198;28;20090;-73
2022/09/16 07:54:03;;;;;;;0.00;0.00;;;;;;;13.15;95.75;101000.25;5072942;28;20033;-74
2022/09/16 07:56:33;;;;;;;0.00;0.00;;;;;;;13.34;96.53;101029.19;5068503;28;20089;-76
2022/09/16 07:58:58;;;;;;;0.00;0.00;;;;;;;13.19;95.91;101013.34;5074407;28;20089;-72
2022/09/16 08:01:24;;;;;;;0.00;0.00;;;;;;;13.19;96.31;101029.50;5069130;28;20029;-73
2022/09/16 08:03:49;;;;;;;0.03;0.03;;;;;;;13.09;93.75;101031.31;5069227;28;20976;-75
2022/09/16 08:06:20;;;;;;;0.00;0.00;;;;;;;13.25;95.72;101030.81;5070830;28;20104;-75
2022/09/16 08:08:45;;;;;;;0.00;0.00;;;;;;;13.45;96.08;101039.06;5074894;28;20032;-75
2022/09/16 08:11:13;;;;;;;0.03;0.03;;;;;;;13.40;93.98;101017.00;5073146;28;20359;-78
2022/09/16 08:13:40;;;;;;;0.03;0.03;;;;;;;13.70;94.22;101055.81;5068348;28;20035;-76
2022/09/16 08:16:17;;;;;;;0.10;0.10;;;;;;;13.64;94.70;101049.09;5057595;28;20028;-75
2022/09/16 08:18:43;;;;;;;0.08;0.08;;;;;;;13.78;93.80;101053.28;5074935;28;20040;-77
2022/09/16 08:21:17;;;;;;;0.00;0.00;;;;;;;13.96;92.36;101050.78;5071085;28;20024;-75
2022/09/16 08:23:43;;;;;;;0.10;0.10;;;;;;;14.04;94.91;101042.88;5075805;28;20028;-73
2022/09/16 08:26:09;;;;;;;0.08;0.08;;;;;;;14.22;92.21;101032.28;5075113;28;20422;-75
2022/09/16 08:28:36;;;;;;;0.05;0.05;;;;;;;14.19;88.72;101026.28;5072731;28;20081;-74
2022/09/16 08:31:02;;;;;;;0.00;0.00;;;;;;;14.45;87.66;101058.16;5074046;28;20024;-78
2022/09/16 08:33:28;;;;;;;0.00;0.00;;;;;;;14.59;87.00;101056.91;5076473;28;20027;-76
2022/09/16 08:36:01;;;;;;;0.10;0.10;;;;;;;14.73;86.90;101058.38;5079462;28;20035;-76
2022/09/16 08:38:27;;;;;;;0.10;0.10;;;;;;;14.83;84.04;101065.47;5079436;28;20119;-79
2022/09/16 08:40:57;;;;;;;0.00;0.00;;;;;;;14.68;84.17;101047.97;5075064;28;20028;-76
2022/09/16 08:43:38;;;;;;;0.00;0.00;;;;;;;14.99;82.02;101059.50;5075399;28;20032;-77
2022/09/16 08:46:30;;;;;;;0.10;0.10;;;;;;;15.01;81.81;101045.84;5071936;28;20126;-72
2022/09/16 08:49:01;;;;;;;0.00;0.00;;;;;;;15.15;78.18;101060.78;5072717;28;20035;-76
2022/09/16 08:51:27;;;;;;;0.00;0.00;;;;;;;15.23;79.76;101060.06;5079182;28;20028;-76
2022/09/16 08:53:56;;;;;;;0.00;0.00;;;;;;;15.35;81.38;101061.63;5074265;28;20507;-75
2022/09/16 08:56:22;;;;;;;0.08;0.08;;;;;;;15.42;80.76;101059.19;5070904;28;20425;-73
2022/09/16 08:58:52;;;;;;;0.05;0.05;;;;;;;15.45;79.04;101062.44;5073534;28;20205;-76
2022/09/16 09:01:25;;;;;;;0.10;0.10;;;;;;;15.32;81.03;101017.75;5072637;28;20031;-70
2022/09/16 09:03:50;;;;;;;0.00;0.00;;;;;;;15.70;79.56;101033.00;5072408;28;20073;-75
2022/09/16 09:06:25;;;;;;;0.00;0.00;;;;;;;15.76;76.25;101050.50;5075319;28;20031;-73
2022/09/16 09:09:11;;;;;;;0.00;0.00;;;;;;;15.97;76.71;101060.31;5073930;28;20108;-74
2022/09/16 09:11:45;;;;;;;0.00;0.00;;;;;;;16.05;76.65;101052.25;5075263;28;20040;-71
2022/09/16 09:14:41;;;;;;;0.00;0.00;;;;;;;15.95;75.83;101054.19;5069641;28;20077;-74
2022/09/16 09:17:34;;;;;;;0.00;0.00;;;;;;;15.71;72.33;101059.06;5072535;28;20454;-74
2022/09/16 09:20:35;;;;;;;0.00;0.00;;;;;;;15.91;74.42;101059.03;5076033;28;20369;-76
2022/09/16 09:23:05;;;;;;;0.08;0.08;;;;;;;15.97;73.34;101063.00;5073725;28;20028;-73
2022/09/16 09:25:54;;;;;;;0.00;0.00;;;;;;;16.18;72.87;101033.81;5074644;28;20043;-75
2022/09/16 09:28:48;;;;;;;0.00;0.00;;;;;;;16.70;69.41;101053.13;5075715;28;20028;-75
2022/09/16 09:31:39;;;;;;;0.00;0.00;;;;;;;16.59;70.54;101041.53;5073360;28;20024;-77
2022/09/16 09:34:23;;;;;;;0.10;0.10;;;;;;;16.32;70.56;101061.38;5075033;28;20392;-74
2022/09/16 09:36:56;;;;;;;0.00;0.00;;;;;;;16.15;71.66;101055.78;5071255;28;20028;-78
2022/09/16 09:39:42;;;;;;;0.00;0.00;;;;;;;15.53;71.85;101074.38;5069808;28;20047;-71
2022/09/16 09:42:20;;;;;;;0.25;0.00;;;;;;;14.93;75.12;101062.81;5071333;28;20059;-69
2022/09/16 09:45:04;;;;;;;0.00;0.00;;;;;;;14.69;76.54;101072.19;5073163;28;20588;-75
2022/09/16 09:47:53;;;;;;;0.05;0.05;;;;;;;14.31;82.04;101071.09;5071579;28;20036;-75
2022/09/16 09:50:23;;;;;;;0.00;0.00;;;;;;;14.22;83.72;101078.19;5069912;28;20032;-74
2022/09/16 09:53:10;;;;;;;0.10;0.10;;;;;;;14.03;84.74;101078.13;5067278;28;20034;-76
2022/09/16 09:55:37;;;;;;;0.00;0.00;;;;;;;13.92;85.52;101074.50;5069106;28;20103;-73
2022/09/16 09:58:12;;;;;;;0.03;0.03;;;;;;;13.65;86.54;101070.56;5073794;28;20131;-72
2022/09/16 10:00:37;;;;;;;0.10;0.10;;;;;;;13.56;87.60;101073.22;5069399;28;20015;-74
2022/09/16 10:03:12;;;;;;;0.13;0.03;;;;;;;13.29;86.75;101083.50;5071415;28;20549;-73
2022/09/16 10:05:37;;;;;;;0.00;0.00;;;;;;;13.03;87.67;101074.94;5068313;28;20028;-74
2022/09/16 10:08:11;;;;;;;0.00;0.00;;;;;;;12.74;87.66;101087.19;5068845;28;20531;-74
2022/09/16 10:10:45;;;;;;;0.00;0.00;;;;;;;12.46;90.26;101067.06;5070917;28;20030;-74
2022/09/16 10:13:11;;;;;;;0.00;0.00;;;;;;;12.57;88.26;101075.13;5064563;28;20493;-73
2022/09/16 10:15:37;;;;;;;0.00;0.00;;;;;;;12.62;89.17;101085.53;5076292;28;20086;-75
2022/09/16 10:18:11;;;;;;;0.00;0.00;;;;;;;12.49;89.38;101084.81;5075869;28;20063;-75
2022/09/16 10:20:39;;;;;;;0.10;0.10;;;;;;;12.71;89.96;101075.81;5065554;28;20060;-74
2022/09/16 10:23:14;;;;;;;0.00;0.00;;;;;;;13.30;88.58;101084.38;5069309;28;20031;-73
2022/09/16 10:25:40;;;;;;;0.00;0.00;;;;;;;13.62;86.77;101078.06;5068727;28;20054;-73
2022/09/16 10:28:25;;;;;;;0.10;0.10;;;;;;;14.35;85.47;101077.91;5074489;28;20126;-71
2022/09/16 10:30:56;;;;;;;0.00;0.00;;;;;;;14.67;81.37;101039.00;5074038;28;20034;-76
2022/09/16 10:33:40;;;;;;;0.05;0.05;;;;;;;15.18;80.43;101052.41;5070546;28;20024;-77
2022/09/16 10:36:10;;;;;;;0.00;0.00;;;;;;;15.87;78.11;101066.59;5076911;28;20383;-76
2022/09/16 10:38:40;;;;;;;0.00;0.00;;;;;;;16.39;75.80;101070.63;5076808;28;20043;-75
2022/09/16 10:41:08;;;;;;;0.08;0.08;;;;;;;16.95;75.68;101070.50;5077459;28;20027;-72
2022/09/16 10:43:36;;;;;;;0.10;0.10;;;;;;;16.83;73.85;101050.91;5080169;28;20470;-72
2022/09/16 10:46:01;;;;;;;0.00;0.00;;;;;;;17.33;70.10;101054.03;5079549;28;20036;-73
2022/09/16 10:48:28;;;;;;;0.00;0.00;;;;;;;17.75;68.67;101055.97;5077236;28;20465;-74
2022/09/16 10:51:04;;;;;;;0.10;0.10;;;;;;;17.89;68.67;101054.53;5075815;28;20072;-71
2022/09/16 10:53:33;;;;;;;0.00;0.00;;;;;;;17.79;64.45;101027.50;5073310;28;20086;-71
2022/09/16 10:56:04;;;;;;;0.00;0.00;;;;;;;18.64;63.29;101058.38;5074867;28;20592;-76
2022/09/16 10:58:29;;;;;;;0.00;0.00;;;;;;;18.99;59.05;101040.06;5084266;28;20012;-71
2022/09/16 11:01:10;;;;;;;0.00;0.00;;;;;;;18.79;58.66;101053.13;5083027;28;20024;-72
2022/09/16 11:04:07;;;;;;;0.05;0.05;;;;;;;19.11;59.41;101048.75;5076587;28;20147;-74
2022/09/16 11:06:41;;;;;;;0.00;0.00;;;;;;;19.55;56.23;101047.50;5077929;28;20131;-68
2022/09/16 11:09:39;;;;;;;0.00;0.00;;;;;;;19.85;55.62;101053.19;5061574;28;20149;-72
2022/09/16 11:12:32;;;;;;;0.00;0.00;;;;;;;20.34;50.66;101051.31;5074221;28;20128;-71
2022/09/16 11:15:11;;;;;;;0.03;0.00;;;;;;;20.77;50.18;101059.06;5075960;28;20379;-74
2022/09/16 11:17:39;;;;;;;0.00;0.00;;;;;;;21.19;49.08;101043.22;5076479;28;20035;-69
2022/09/16 11:20:22;;;;;;;0.00;0.00;;;;;;;21.50;47.07;101053.13;5076193;28;20036;-70
2022/09/16 11:23:25;;;;;;;0.00;0.00;;;;;;;21.29;47.89;101051.97;5080951;28;20481;-77
2022/09/16 11:26:23;;;;;;;0.00;0.00;;;;;;;22.20;45.76;101061.03;5075378;28;20039;-74
2022/09/16 11:28:59;;;;;;;0.00;0.00;;;;;;;20.69;46.10;101059.91;5073614;28;20149;-76
2022/09/16 11:31:39;;;;;;;0.00;0.00;;;;;;;20.82;47.09;101060.22;5075456;28;20032;-70
2022/09/16 11:34:31;;;;;;;0.00;0.00;;;;;;;19.38;48.66;101067.59;5077666;28;20036;-70
2022/09/16 11:37:18;;;;;;;0.00;0.00;;;;;;;18.36;52.37;101060.53;5073423;28;20044;-76
2022/09/16 11:39:54;;;;;;;0.00;0.00;;;;;;;17.78;57.02;101076.53;5074815;28;20111;-71
2022/09/16 11:42:34;;;;;;;0.00;0.00;;;;;;;17.12;58.91;101085.09;5069687;28;20024;-70